Main page
METAR-TAF:

METAR-TAF

Airports :

Queen Beatrix International Airport

Aruba, Aruba

latitude: 12-30N, longitude: 070-01W, elevation: 18 m

Current weather observation

The report was made 54 minutes ago, at 22:00 UTC
Wind 19 kt from the East
Temperature 31°C
Humidity 71%
Pressure 1012 hPa
Visibility 10 km or more
Few clouds at a height of 2000 ft

METAR: TNCA 202200Z 08019KT 9999 FEW020 31/25 Q1012 NOSIG

Time: 18:54 (22:54 UTC)

Forecast

The report was made 5 hours and 37 minutes ago, at 17:17 UTC
Forecast valid from 20 at 18 UTC to 21 at 18 UTC
Wind 22 kt from the East
Visibility 10 km or more
Scattered clouds at a height of 2200 ft
Temporary
from 21 at 12 UTC to 21 at 18 UTC
Broken clouds at a height of 1500 ft

TAF: TNCA 201717Z 2018/2118 09022KT 9999 SCT022 TEMPO 2112/2118 BKN015

Weather observations and forecasts of more than 4000 airports (METAR and TAF reports).

The available stations are represented by yellow and red dots on the map.

Hover mouse over dot to see the name of the station.

Then click to see weather observations and forecasts.

To change the map : click on the green buttons with a black cross to zoom in, on the green button with a dash to zoom out, or on the green arrows for adjacent maps.


METAR-TAF: